This is the latest recevied weather packets stored in our database for station/object N9DRW. If no packets are shown the sender has not sent any weather packets the latest 10 day(s).
| Time | Temp. | Humidity | Pressure | Rain* | Wind** | Luminosity | Snow |
|---|---|---|---|---|---|---|---|
| 1778190726 | 15.56° C | 31% | 0 hPa | 0 mm | - | - | - |
| 1778190126 | 15.56° C | 33% | 0 hPa | 0 mm | - | - | - |
| 1778189526 | 15.56° C | 33% | 0 hPa | 0 mm | - | - | - |
| 1778188926 | 15.56° C | 34% | 0 hPa | 0 mm | - | - | - |
| 1778188326 | 15.56° C | 34% | 0 hPa | 0 mm | - | - | - |
| 1778187726 | 15.56° C | 34% | 0 hPa | 0 mm | - | - | - |
| 1778187126 | 15° C | 34% | 0 hPa | 0 mm | - | - | - |
| 1778186525 | 16.11° C | 34% | 0 hPa | 0 mm | - | - | - |
| 1778185929 | 15.56° C | 35% | 0 hPa | 0 mm | - | - | - |
| 1778185326 | 14.44° C | 38% | 0 hPa | 0 mm | - | - | - |
| 1778184726 | 13.89° C | 39% | 0 hPa | 0 mm | - | - | - |
| 1778184126 | 14.44° C | 39% | 0 hPa | 0 mm | - | - | - |
| 1778183526 | 15° C | 37% | 0 hPa | 0 mm | - | - | - |
| 1778182927 | 15° C | 40% | 0 hPa | 0 mm | - | - | - |
| 1778182326 | 13.89° C | 42% | 0 hPa | 0 mm | - | - | - |
| 1778181726 | 12.78° C | 51% | 0 hPa | 0 mm | - | - | - |
| 1778181126 | 13.33° C | 41% | 0 hPa | 0 mm | - | - | - |
| 1778180526 | 14.44° C | 39% | 0 hPa | 0 mm | - | - | - |
| 1778179926 | 14.44° C | 40% | 0 hPa | 0 mm | - | - | - |
| 1778179325 | 13.89° C | 41% | 0 hPa | 0 mm | - | - | - |
| 1778178726 | 14.44° C | 39% | 0 hPa | 0 mm | - | - | - |
| 1778178137 | 13.89° C | 45% | 0 hPa | 0 mm | - | - | - |
| 1778177526 | 13.33° C | 48% | 0 hPa | 0 mm | - | - | - |
| 1778176926 | 12.78° C | 42% | 0 hPa | 0 mm | - | - | - |
| 1778176326 | 13.33° C | 41% | 0 hPa | 0 mm | - | - | - |
* Rain latest hour (hover to see other rain measurements)
** Current wind speed in m/s (hover to see current wind gust speed)